Seaward — WDC8056 — position and weather

sailwx.info

Track history (hours):
 
Tides and Currents Weather Stations Pressure Air Temp Water Temp Dewpoint Dewpoint Depression Visibility Wind Speed Wind Dir Waves Ship Positions

Seaward

Owner: Call of the Sea, sausalito, CA. More information available from US FCC via Universal Licensing System and Coast Guard Vessel Documentation Center.

Last reported at 2017-Oct-15 00:13 UTC. Time now 2017-Oct-16 22:34 UTC.
Position N 37°52' W 122°30'.

Length 21 m; draft 3 m.

Type: Sailing vessel. MMSI: 2712376.

Date/timePositionNaut miles runAvg speedWind from/ knotsBaromVisibWave heightAir tempDewpointWater temp
2017-Oct-15 00:13N 37°52' W 122°30'0 0.0
2017-Oct-14 23:59N 37°52' W 122°30'0 0.0
2017-Oct-14 23:31N 37°52' W 122°30'0 0.0
2017-Oct-14 23:00N 37°52' W 122°30'1 2.4
2017-Oct-14 22:30N 37°51' W 122°28'2 4.0
2017-Oct-14 22:00N 37°49' W 122°27'1 1.8
2017-Oct-14 21:30N 37°49' W 122°28'0 1.0
2017-Oct-14 21:00N 37°49' W 122°28'2 4.5
2017-Oct-14 20:30N 37°52' W 122°29'1 1.7
2017-Oct-14 20:00N 37°52' W 122°30'0 0.0
2017-Oct-14 19:30N 37°52' W 122°30'0 0.0
2017-Oct-14 19:00N 37°52' W 122°30'0 0.0
2017-Oct-14 18:30N 37°52' W 122°30'0 0.0
2017-Oct-14 18:00N 37°52' W 122°30'0 0.0
2017-Oct-14 17:30N 37°52' W 122°30'0 0.0
2017-Oct-14 17:00N 37°52' W 122°30'0 0.0
2017-Oct-14 16:30N 37°52' W 122°30'0 0.0
2017-Oct-14 16:00N 37°52' W 122°30'0 0.0
2017-Oct-14 15:31N 37°52' W 122°30'0 0.0
2017-Oct-14 15:00N 37°52' W 122°30'0 0.0
2017-Oct-14 14:30N 37°52' W 122°30'0 0.0
2017-Oct-14 14:01N 37°52' W 122°30'0 0.0
2017-Oct-14 13:30N 37°52' W 122°30'0 0.0
2017-Oct-14 13:00N 37°52' W 122°30'0 0.0
2017-Oct-14 12:31N 37°52' W 122°30'0 0.0
2017-Oct-14 12:00N 37°52' W 122°30'0 0.0
2017-Oct-14 11:30N 37°52' W 122°30'0 0.0
2017-Oct-14 11:00N 37°52' W 122°30'0 0.0
2017-Oct-14 10:30N 37°52' W 122°30'0 0.0
2017-Oct-14 10:00N 37°52' W 122°30'0 0.0
2017-Oct-14 09:30N 37°52' W 122°30'0 0.0
2017-Oct-14 09:00N 37°52' W 122°30'0 0.0
2017-Oct-14 08:30N 37°52' W 122°30'0 0.0
2017-Oct-14 07:56N 37°52' W 122°30'0 0.0
2017-Oct-14 07:30N 37°52' W 122°30'0 0.0
2017-Oct-14 07:00N 37°52' W 122°30'0 0.0
2017-Oct-14 06:30N 37°52' W 122°30'0 0.0
2017-Oct-14 06:00N 37°52' W 122°30'0 0.0
2017-Oct-14 05:30N 37°52' W 122°30'0 0.0
2017-Oct-14 05:00N 37°52' W 122°30'0 0.0
2017-Oct-14 04:30N 37°52' W 122°30'0 0.0
2017-Oct-14 04:00N 37°52' W 122°30'0 0.0
2017-Oct-14 03:30N 37°52' W 122°30'0 0.0
2017-Oct-14 03:00N 37°52' W 122°30'0 0.0
2017-Oct-14 02:30N 37°52' W 122°30'0 0.0
2017-Oct-14 02:00N 37°52' W 122°30'0 0.0
2017-Oct-14 01:30N 37°52' W 122°30'0 0.0
2017-Oct-14 01:01N 37°52' W 122°30'0 0.0
2017-Oct-14 00:30N 37°52' W 122°30'0 0.0
2017-Oct-14 00:01N 37°52' W 122°30'0 0.0
2017-Oct-13 23:31N 37°52' W 122°30'0 0.0
2017-Oct-13 23:01N 37°52' W 122°30'0 0.0
2017-Oct-13 22:30N 37°52' W 122°30'0 0.0
2017-Oct-13 22:01N 37°52' W 122°30'0 0.0
2017-Oct-13 21:31N 37°52' W 122°30'0 0.0
2017-Oct-13 21:01N 37°52' W 122°30'0 0.0
2017-Oct-13 20:30N 37°52' W 122°30'0 0.0
2017-Oct-13 20:00N 37°52' W 122°30'0 0.0
2017-Oct-13 19:31N 37°52' W 122°30'0 0.0
2017-Oct-13 19:01N 37°52' W 122°30'0 0.0
2017-Oct-12 01:01N 37°52' W 122°30'0 0.0
2017-Oct-12 01:01N 37°52' W 122°30'1 2.0
2017-Oct-12 00:31N 37°51' W 122°28'2 4.2
2017-Oct-12 00:01N 37°50' W 122°26'2 4.2
2017-Oct-11 23:31N 37°49' W 122°29'2 4.1
2017-Oct-11 23:01N 37°51' W 122°29'1 1.9
2017-Oct-11 22:30N 37°52' W 122°30'0 0.0
2017-Oct-11 22:00N 37°52' W 122°30'  
2017-Oct-09 01:41N 37°52' W 122°30'0 0.0
2017-Oct-09 01:31N 37°52' W 122°30'0 0.0
2017-Oct-09 01:00N 37°52' W 122°30'0 0.0
2017-Oct-09 00:30N 37°52' W 122°30'0 0.0
2017-Oct-09 00:00N 37°52' W 122°30'1 1.3
2017-Oct-08 23:30N 37°52' W 122°29'2 4.8
2017-Oct-08 23:00N 37°49' W 122°29'1 2.0
2017-Oct-08 22:30N 37°49' W 122°28'0 0.7
2017-Oct-08 22:00N 37°49' W 122°27'1 1.8
2017-Oct-08 21:30N 37°49' W 122°26'0 0.2
2017-Oct-08 21:00N 37°49' W 122°26'3 5.1
2017-Oct-08 20:30N 37°51' W 122°28'1 2.4
2017-Oct-08 20:00N 37°52' W 122°30'0 0.0
2017-Oct-08 19:30N 37°52' W 122°30'0 0.0
2017-Oct-08 01:11N 37°52' W 122°30'0 0.0
2017-Oct-08 01:00N 37°52' W 122°30'2 3.3
2017-Oct-08 00:30N 37°51' W 122°28'4 8.1
2017-Oct-08 00:00N 37°51' W 122°23'3 5.9
2017-Oct-07 23:30N 37°52' W 122°19'2 4.3
2017-Oct-07 23:00N 37°51' W 122°22'3 6.6
2017-Oct-07 22:31N 37°50' W 122°25'2 3.9
2017-Oct-07 22:01N 37°49' W 122°27'0 0.7
2017-Oct-07 21:31N 37°49' W 122°27'0 0.7
2017-Oct-07 21:01N 37°49' W 122°27'1 1.8
2017-Oct-07 20:31N 37°50' W 122°28'1 1.3
2017-Oct-07 20:01N 37°50' W 122°27'1 1.0
2017-Oct-07 19:30N 37°50' W 122°28'2 3.0
2017-Oct-07 19:00N 37°51' W 122°26'2 4.6
2017-Oct-07 18:30N 37°49' W 122°24'1 1.8
2017-Oct-07 18:00N 37°50' W 122°23'2 4.1
2017-Oct-07 17:30N 37°51' W 122°21'2 3.9
2017-Oct-07 17:00N 37°52' W 122°19'0 0.5
2017-Oct-07 16:30N 37°52' W 122°19'3 6.5
2017-Oct-07 16:00N 37°51' W 122°23'4 7.4
2017-Oct-07 15:30N 37°51' W 122°28'2 0.1
2017-Oct-07 00:16N 37°52' W 122°30'0 0.0
2017-Oct-07 00:01N 37°52' W 122°30'0 0.3
2017-Oct-06 23:30N 37°52' W 122°29'2 3.7
2017-Oct-06 23:00N 37°50' W 122°28'1 2.1
2017-Oct-06 22:30N 37°49' W 122°27'1 1.3
2017-Oct-06 22:00N 37°49' W 122°28'1 1.4
2017-Oct-06 21:30N 37°49' W 122°27'1 2.3
2017-Oct-06 21:01N 37°49' W 122°29'2 3.5
2017-Oct-06 20:30N 37°51' W 122°28'1 3.0
2017-Oct-06 20:01N 37°52' W 122°30'0 0.0
2017-Oct-05 19:40N 37°52' W 122°30'  
Track history (hours):
 
Tides and Currents Weather Stations Pressure Air Temp Water Temp Dewpoint Dewpoint Depression Visibility Wind Speed Wind Dir Waves Ship Positions

Seaward

Owner: Call of the Sea, sausalito, CA. More information available from US FCC via Universal Licensing System and Coast Guard Vessel Documentation Center.

Last reported at 2017-Oct-15 00:13 UTC. Time now 2017-Oct-16 22:34 UTC.
Position N 37°52' W 122°30'.

Length 21 m; draft 3 m.

Type: Sailing vessel. MMSI: 2712376.

Date/timePositionNaut miles runAvg speedWind from/ knotsBaromVisibWave heightAir tempDewpointWater temp
2017-Oct-15 00:13N 37°52' W 122°30'0 0.0
2017-Oct-14 23:59N 37°52' W 122°30'0 0.0
2017-Oct-14 23:31N 37°52' W 122°30'0 0.0
2017-Oct-14 23:00N 37°52' W 122°30'1 2.4
2017-Oct-14 22:30N 37°51' W 122°28'2 4.0
2017-Oct-14 22:00N 37°49' W 122°27'1 1.8
2017-Oct-14 21:30N 37°49' W 122°28'0 1.0
2017-Oct-14 21:00N 37°49' W 122°28'2 4.5
2017-Oct-14 20:30N 37°52' W 122°29'1 1.7
2017-Oct-14 20:00N 37°52' W 122°30'0 0.0
2017-Oct-14 19:30N 37°52' W 122°30'0 0.0
2017-Oct-14 19:00N 37°52' W 122°30'0 0.0
2017-Oct-14 18:30N 37°52' W 122°30'0 0.0
2017-Oct-14 18:00N 37°52' W 122°30'0 0.0
2017-Oct-14 17:30N 37°52' W 122°30'0 0.0
2017-Oct-14 17:00N 37°52' W 122°30'0 0.0
2017-Oct-14 16:30N 37°52' W 122°30'0 0.0
2017-Oct-14 16:00N 37°52' W 122°30'0 0.0
2017-Oct-14 15:31N 37°52' W 122°30'0 0.0
2017-Oct-14 15:00N 37°52' W 122°30'0 0.0
2017-Oct-14 14:30N 37°52' W 122°30'0 0.0
2017-Oct-14 14:01N 37°52' W 122°30'0 0.0
2017-Oct-14 13:30N 37°52' W 122°30'0 0.0
2017-Oct-14 13:00N 37°52' W 122°30'0 0.0
2017-Oct-14 12:31N 37°52' W 122°30'0 0.0
2017-Oct-14 12:00N 37°52' W 122°30'0 0.0
2017-Oct-14 11:30N 37°52' W 122°30'0 0.0
2017-Oct-14 11:00N 37°52' W 122°30'0 0.0
2017-Oct-14 10:30N 37°52' W 122°30'0 0.0
2017-Oct-14 10:00N 37°52' W 122°30'0 0.0
2017-Oct-14 09:30N 37°52' W 122°30'0 0.0
2017-Oct-14 09:00N 37°52' W 122°30'0 0.0
2017-Oct-14 08:30N 37°52' W 122°30'0 0.0
2017-Oct-14 07:56N 37°52' W 122°30'0 0.0
2017-Oct-14 07:30N 37°52' W 122°30'0 0.0
2017-Oct-14 07:00N 37°52' W 122°30'0 0.0
2017-Oct-14 06:30N 37°52' W 122°30'0 0.0
2017-Oct-14 06:00N 37°52' W 122°30'0 0.0
2017-Oct-14 05:30N 37°52' W 122°30'0 0.0
2017-Oct-14 05:00N 37°52' W 122°30'0 0.0
2017-Oct-14 04:30N 37°52' W 122°30'0 0.0
2017-Oct-14 04:00N 37°52' W 122°30'0 0.0
2017-Oct-14 03:30N 37°52' W 122°30'0 0.0
2017-Oct-14 03:00N 37°52' W 122°30'0 0.0
2017-Oct-14 02:30N 37°52' W 122°30'0 0.0
2017-Oct-14 02:00N 37°52' W 122°30'0 0.0
2017-Oct-14 01:30N 37°52' W 122°30'0 0.0
2017-Oct-14 01:01N 37°52' W 122°30'0 0.0
2017-Oct-14 00:30N 37°52' W 122°30'0 0.0
2017-Oct-14 00:01N 37°52' W 122°30'0 0.0
2017-Oct-13 23:31N 37°52' W 122°30'0 0.0
2017-Oct-13 23:01N 37°52' W 122°30'0 0.0
2017-Oct-13 22:30N 37°52' W 122°30'0 0.0
2017-Oct-13 22:01N 37°52' W 122°30'0 0.0
2017-Oct-13 21:31N 37°52' W 122°30'0 0.0
2017-Oct-13 21:01N 37°52' W 122°30'0 0.0
2017-Oct-13 20:30N 37°52' W 122°30'0 0.0
2017-Oct-13 20:00N 37°52' W 122°30'0 0.0
2017-Oct-13 19:31N 37°52' W 122°30'0 0.0
2017-Oct-13 19:01N 37°52' W 122°30'0 0.0
2017-Oct-12 01:01N 37°52' W 122°30'0 0.0
2017-Oct-12 01:01N 37°52' W 122°30'1 2.0
2017-Oct-12 00:31N 37°51' W 122°28'2 4.2
2017-Oct-12 00:01N 37°50' W 122°26'2 4.2
2017-Oct-11 23:31N 37°49' W 122°29'2 4.1
2017-Oct-11 23:01N 37°51' W 122°29'1 1.9
2017-Oct-11 22:30N 37°52' W 122°30'0 0.0
2017-Oct-11 22:00N 37°52' W 122°30'  
2017-Oct-09 01:41N 37°52' W 122°30'0 0.0
2017-Oct-09 01:31N 37°52' W 122°30'0 0.0
2017-Oct-09 01:00N 37°52' W 122°30'0 0.0
2017-Oct-09 00:30N 37°52' W 122°30'0 0.0
2017-Oct-09 00:00N 37°52' W 122°30'1 1.3
2017-Oct-08 23:30N 37°52' W 122°29'2 4.8
2017-Oct-08 23:00N 37°49' W 122°29'1 2.0
2017-Oct-08 22:30N 37°49' W 122°28'0 0.7
2017-Oct-08 22:00N 37°49' W 122°27'1 1.8
2017-Oct-08 21:30N 37°49' W 122°26'0 0.2
2017-Oct-08 21:00N 37°49' W 122°26'3 5.1
2017-Oct-08 20:30N 37°51' W 122°28'1 2.4
2017-Oct-08 20:00N 37°52' W 122°30'0 0.0
2017-Oct-08 19:30N 37°52' W 122°30'0 0.0
2017-Oct-08 01:11N 37°52' W 122°30'0 0.0
2017-Oct-08 01:00N 37°52' W 122°30'2 3.3
2017-Oct-08 00:30N 37°51' W 122°28'4 8.1
2017-Oct-08 00:00N 37°51' W 122°23'3 5.9
2017-Oct-07 23:30N 37°52' W 122°19'2 4.3
2017-Oct-07 23:00N 37°51' W 122°22'3 6.6
2017-Oct-07 22:31N 37°50' W 122°25'2 3.9
2017-Oct-07 22:01N 37°49' W 122°27'0 0.7
2017-Oct-07 21:31N 37°49' W 122°27'0 0.7
2017-Oct-07 21:01N 37°49' W 122°27'1 1.8
2017-Oct-07 20:31N 37°50' W 122°28'1 1.3
2017-Oct-07 20:01N 37°50' W 122°27'1 1.0
2017-Oct-07 19:30N 37°50' W 122°28'2 3.0
2017-Oct-07 19:00N 37°51' W 122°26'2 4.6
2017-Oct-07 18:30N 37°49' W 122°24'1 1.8
2017-Oct-07 18:00N 37°50' W 122°23'2 4.1
2017-Oct-07 17:30N 37°51' W 122°21'2 3.9
2017-Oct-07 17:00N 37°52' W 122°19'0 0.5
2017-Oct-07 16:30N 37°52' W 122°19'3 6.5
2017-Oct-07 16:00N 37°51' W 122°23'4 7.4
2017-Oct-07 15:30N 37°51' W 122°28'2 0.1
2017-Oct-07 00:16N 37°52' W 122°30'0 0.0
2017-Oct-07 00:01N 37°52' W 122°30'0 0.3
2017-Oct-06 23:30N 37°52' W 122°29'2 3.7
2017-Oct-06 23:00N 37°50' W 122°28'1 2.1
2017-Oct-06 22:30N 37°49' W 122°27'1 1.3
2017-Oct-06 22:00N 37°49' W 122°28'1 1.4
2017-Oct-06 21:30N 37°49' W 122°27'1 2.3
2017-Oct-06 21:01N 37°49' W 122°29'2 3.5
2017-Oct-06 20:30N 37°51' W 122°28'1 3.0
2017-Oct-06 20:01N 37°52' W 122°30'0 0.0
2017-Oct-05 19:40N 37°52' W 122°30'  

Dump ship's entire track history